createdAt,value
2022-12-04T00:01:21.900Z,101186.81
2022-12-04T00:04:25.139Z,101184.47
2022-12-04T00:07:28.120Z,101175.94
2022-12-04T00:10:31.066Z,101171.88
2022-12-04T00:13:34.330Z,101162.69
2022-12-04T00:16:37.308Z,101171.12
2022-12-04T00:19:39.895Z,101168.50
2022-12-04T00:22:43.055Z,101173.16
2022-12-04T00:25:49.082Z,101182.78
2022-12-04T00:28:52.715Z,101194.41
2022-12-04T00:31:55.647Z,101182.97
2022-12-04T00:34:58.617Z,101192.22
2022-12-04T00:38:01.551Z,101193.84
2022-12-04T00:41:05.190Z,101184.41
2022-12-04T00:44:07.790Z,101187.41
2022-12-04T00:47:11.030Z,101186.69
2022-12-04T00:50:13.747Z,101188.00
2022-12-04T00:53:16.658Z,101181.28
2022-12-04T00:56:22.854Z,101185.59
2022-12-04T00:59:25.699Z,101183.09
2022-12-04T01:02:30.155Z,101190.91
2022-12-04T01:05:41.564Z,101192.53
2022-12-04T01:08:44.182Z,101190.81
2022-12-04T01:11:47.224Z,101191.12
2022-12-04T01:14:49.790Z,101180.28
2022-12-04T01:17:52.938Z,101172.16
2022-12-04T01:20:55.986Z,101172.28
2022-12-04T01:23:59.763Z,101160.03
2022-12-04T01:27:02.601Z,101146.69
2022-12-04T01:30:06.458Z,101159.13
2022-12-04T01:33:09.079Z,101167.56
2022-12-04T01:36:18.682Z,101157.00
2022-12-04T01:39:21.608Z,101153.81
2022-12-04T01:42:24.963Z,101142.66
2022-12-04T01:45:47.286Z,101147.19
2022-12-04T01:48:53.102Z,101146.09
2022-12-04T01:52:03.658Z,101149.37
2022-12-04T01:55:07.956Z,101147.47
2022-12-04T01:58:10.866Z,101132.34
2022-12-04T02:01:13.817Z,101139.47
2022-12-04T02:04:16.959Z,101143.69
2022-12-04T02:07:19.599Z,101146.28
2022-12-04T02:10:35.259Z,101143.47
2022-12-04T02:13:50.304Z,101141.06
2022-12-04T02:17:34.830Z,101145.28
2022-12-04T02:20:51.966Z,101124.31
2022-12-04T02:24:11.950Z,101126.44
2022-12-04T02:27:20.038Z,101129.66
2022-12-04T02:30:23.249Z,101142.06
2022-12-04T02:33:34.623Z,101136.88
2022-12-04T02:36:47.963Z,101131.25
2022-12-04T02:40:04.864Z,101126.62
2022-12-04T02:43:15.368Z,101118.72
2022-12-04T02:46:43.240Z,101107.91
2022-12-04T02:50:08.770Z,101108.28
2022-12-04T02:53:19.648Z,101113.09
2022-12-04T02:56:30.966Z,101109.69
2022-12-04T02:59:42.859Z,101112.69
2022-12-04T03:02:58.511Z,101116.91
2022-12-04T03:06:10.422Z,101112.91
2022-12-04T03:09:18.023Z,101114.63
2022-12-04T03:12:29.907Z,101114.41
2022-12-04T03:15:42.467Z,101118.31
2022-12-04T03:18:59.088Z,101107.38
2022-12-04T03:22:06.667Z,101107.78
2022-12-04T03:25:09.638Z,101112.19
2022-12-04T03:28:25.987Z,101114.78
2022-12-04T03:31:44.264Z,101109.38
2022-12-04T03:34:59.000Z,101128.25
2022-12-04T03:38:09.166Z,101119.72
2022-12-04T03:41:28.449Z,101126.62
2022-12-04T03:44:43.330Z,101113.69
2022-12-04T03:48:05.712Z,101115.09
2022-12-04T03:51:20.151Z,101119.22
2022-12-04T03:54:29.186Z,101120.72
2022-12-04T03:57:37.192Z,101123.81
2022-12-04T04:00:42.892Z,101127.84
2022-12-04T04:03:52.006Z,101131.47
2022-12-04T04:06:59.360Z,101124.31
2022-12-04T04:10:07.896Z,101124.75
2022-12-04T04:13:35.998Z,101122.31
2022-12-04T04:17:01.776Z,101120.50
2022-12-04T04:20:31.422Z,101117.81
2022-12-04T04:24:01.412Z,101125.22
2022-12-04T04:27:04.562Z,101132.84
2022-12-04T04:30:09.309Z,101129.34
2022-12-04T04:33:16.764Z,101139.84
2022-12-04T04:36:39.598Z,101133.34
2022-12-04T04:39:53.279Z,101140.06
2022-12-04T04:43:08.711Z,101127.12
2022-12-04T04:46:20.892Z,101124.78
2022-12-04T04:49:28.271Z,101135.97
2022-12-04T04:52:32.406Z,101125.31
2022-12-04T04:55:36.398Z,101126.41
2022-12-04T04:58:39.486Z,101121.41
2022-12-04T05:01:45.120Z,101116.44
2022-12-04T05:04:48.543Z,101107.34
2022-12-04T05:07:51.531Z,101116.28
2022-12-04T05:10:54.389Z,101113.75
2022-12-04T05:13:57.337Z,101118.22
2022-12-04T05:17:01.912Z,101123.62
2022-12-04T05:20:06.739Z,101126.31
2022-12-04T05:23:09.319Z,101114.25
2022-12-04T05:26:12.325Z,101122.09
2022-12-04T05:29:15.007Z,101120.19
2022-12-04T05:32:17.943Z,101114.97
2022-12-04T05:35:20.539Z,101112.50
2022-12-04T05:38:23.407Z,101118.81
2022-12-04T05:41:26.479Z,101126.47
2022-12-04T05:44:29.396Z,101124.44
2022-12-04T05:47:31.920Z,101129.84
2022-12-04T05:50:34.855Z,101123.75
2022-12-04T05:53:38.290Z,101132.16
2022-12-04T05:56:41.170Z,101125.37
2022-12-04T05:59:43.710Z,101128.66
2022-12-04T06:02:46.622Z,101121.28
2022-12-04T06:05:49.661Z,101115.50
2022-12-04T06:08:56.734Z,101121.94
2022-12-04T06:11:59.753Z,101126.13
2022-12-04T06:15:02.336Z,101113.41
2022-12-04T06:18:06.080Z,101118.94
2022-12-04T06:21:11.554Z,101108.50
2022-12-04T06:24:17.594Z,101102.16
2022-12-04T06:27:28.439Z,101112.66
2022-12-04T06:30:34.155Z,101105.81
2022-12-04T06:33:37.031Z,101111.31
2022-12-04T06:36:39.987Z,101119.91
2022-12-04T06:39:42.714Z,101121.63
2022-12-04T06:42:45.610Z,101127.19
2022-12-04T06:45:48.541Z,101120.69
2022-12-04T06:48:52.130Z,101136.44
2022-12-04T06:51:54.839Z,101126.91
2022-12-04T06:54:57.774Z,101123.72
2022-12-04T06:58:00.375Z,101130.44
2022-12-04T07:01:09.030Z,101125.16
2022-12-04T07:04:11.807Z,101115.44
2022-12-04T07:07:14.814Z,101127.06
2022-12-04T07:10:17.442Z,101122.78
2022-12-04T07:13:20.498Z,101124.53
2022-12-04T07:16:25.594Z,101120.41
2022-12-04T07:19:28.683Z,101111.91
2022-12-04T07:22:31.323Z,101112.09
2022-12-04T07:25:34.218Z,101120.25
2022-12-04T07:28:37.762Z,101125.94
2022-12-04T07:31:40.922Z,101134.25
2022-12-04T07:34:43.973Z,101138.16
2022-12-04T07:37:46.823Z,101139.88
2022-12-04T07:40:49.348Z,101144.97
2022-12-04T07:43:52.463Z,101146.78
2022-12-04T07:46:55.047Z,101150.69
2022-12-04T07:49:58.292Z,101160.72
2022-12-04T07:53:01.020Z,101152.88
2022-12-04T07:56:05.114Z,101150.66
2022-12-04T07:59:07.877Z,101153.44
2022-12-04T08:02:13.071Z,101155.34
2022-12-04T08:05:16.203Z,101154.94
2022-12-04T08:08:18.865Z,101150.81
2022-12-04T08:11:24.187Z,101148.31
2022-12-04T08:14:26.750Z,101144.53
2022-12-04T08:17:29.703Z,101143.06
2022-12-04T08:20:32.919Z,101149.97
2022-12-04T08:23:36.714Z,101146.38
2022-12-04T08:26:39.351Z,101141.28
2022-12-04T08:29:42.829Z,101138.03
2022-12-04T08:32:45.539Z,101148.09
2022-12-04T08:35:48.466Z,101144.75
2022-12-04T08:38:51.192Z,101142.13
2022-12-04T08:41:57.183Z,101142.56
2022-12-04T08:45:00.051Z,101145.41
2022-12-04T08:48:03.048Z,101136.50
2022-12-04T08:51:08.247Z,101138.94
2022-12-04T08:54:12.620Z,101134.81
2022-12-04T08:57:15.241Z,101133.00
2022-12-04T09:00:18.942Z,101140.50
2022-12-04T09:03:27.530Z,101141.53
2022-12-04T09:06:33.552Z,101139.81
2022-12-04T09:09:36.427Z,101136.50
2022-12-04T09:12:39.771Z,101125.19
2022-12-04T09:15:42.672Z,101132.00
2022-12-04T09:18:46.484Z,101122.97
2022-12-04T09:21:49.374Z,101127.78
2022-12-04T09:24:52.596Z,101121.19
2022-12-04T09:27:55.497Z,101114.81
2022-12-04T09:31:00.523Z,101097.84
2022-12-04T09:34:03.526Z,101097.69
2022-12-04T09:37:06.591Z,101099.56
2022-12-04T09:40:29.606Z,101101.00
2022-12-04T09:43:48.735Z,101092.72
2022-12-04T09:46:54.455Z,101090.94
2022-12-04T09:50:03.640Z,101093.66
2022-12-04T09:53:14.240Z,101098.56
2022-12-04T09:56:22.427Z,101099.25
2022-12-04T09:59:28.142Z,101091.56
2022-12-04T10:02:40.609Z,101077.78
2022-12-04T10:06:02.251Z,101075.69
2022-12-04T10:09:12.145Z,101076.09
2022-12-04T10:12:24.319Z,101066.69
2022-12-04T10:15:27.050Z,101065.53
2022-12-04T10:18:51.778Z,101064.22
2022-12-04T10:22:12.742Z,101052.16
2022-12-04T10:25:20.320Z,101050.44
2022-12-04T10:28:34.246Z,101057.31
2022-12-04T10:31:39.602Z,101058.34
2022-12-04T10:34:45.746Z,101054.00
2022-12-04T10:37:53.851Z,101043.72
2022-12-04T10:41:08.759Z,101029.25
2022-12-04T10:44:16.775Z,101031.31
2022-12-04T10:47:22.222Z,101031.69
2022-12-04T10:50:25.867Z,101028.34
2022-12-04T10:53:36.101Z,101016.06
2022-12-04T10:56:51.037Z,101014.22
2022-12-04T10:59:56.499Z,101007.44
2022-12-04T11:03:02.783Z,100995.69
2022-12-04T11:06:08.797Z,100993.91
2022-12-04T11:09:23.909Z,100994.66
2022-12-04T11:12:26.662Z,100987.59
2022-12-04T11:15:30.439Z,100991.69
2022-12-04T11:18:48.250Z,101000.88
2022-12-04T11:21:53.418Z,101005.84
2022-12-04T11:24:59.044Z,101004.47
2022-12-04T11:28:03.738Z,101004.09
2022-12-04T11:31:09.393Z,100994.94
2022-12-04T11:34:20.368Z,100998.25
2022-12-04T11:37:27.939Z,101009.53
2022-12-04T11:40:31.385Z,100993.28
2022-12-04T11:43:37.801Z,100997.66
2022-12-04T11:46:53.043Z,100997.53
2022-12-04T11:50:26.575Z,100988.91
2022-12-04T11:53:58.726Z,100984.09
2022-12-04T11:57:13.633Z,100978.78
2022-12-04T12:00:19.687Z,100977.50
2022-12-04T12:03:35.139Z,100988.91
2022-12-04T12:06:41.283Z,100973.59
2022-12-04T12:09:55.818Z,100974.41
2022-12-04T12:13:17.254Z,100978.16
2022-12-04T12:16:29.003Z,100986.06
2022-12-04T12:19:37.416Z,100970.28
2022-12-04T12:23:06.432Z,100972.81
2022-12-04T12:26:12.606Z,100964.16
2022-12-04T12:29:33.998Z,100977.19
2022-12-04T12:32:55.180Z,100966.78
2022-12-04T12:36:09.862Z,100958.59
2022-12-04T12:39:39.809Z,100963.09
2022-12-04T12:42:57.876Z,100975.34
2022-12-04T12:46:20.998Z,100964.78
2022-12-04T12:49:48.638Z,100973.44
2022-12-04T12:52:58.947Z,100961.44
2022-12-04T12:56:05.080Z,100958.44
2022-12-04T12:59:15.098Z,100953.34
2022-12-04T13:02:33.450Z,100965.69
2022-12-04T13:05:41.070Z,100965.28
2022-12-04T13:08:56.331Z,100961.31
2022-12-04T13:12:03.839Z,100958.81
2022-12-04T13:15:13.017Z,100980.16
2022-12-04T13:18:29.496Z,100980.63
2022-12-04T13:22:24.141Z,100987.06
2022-12-04T13:25:43.610Z,100986.56
2022-12-04T13:29:38.907Z,100989.84
2022-12-04T13:33:09.174Z,100991.31
2022-12-04T13:36:17.895Z,100992.78
2022-12-04T13:40:09.449Z,100999.44
2022-12-04T13:43:36.810Z,100989.19
2022-12-04T13:46:42.534Z,100995.31
2022-12-04T13:49:46.315Z,100995.53
2022-12-04T13:52:49.486Z,101002.41
2022-12-04T13:55:56.884Z,100999.19
2022-12-04T13:59:20.886Z,101010.81
2022-12-04T14:02:37.481Z,101006.69
2022-12-04T14:05:42.919Z,101015.34
2022-12-04T14:08:45.943Z,101014.09
2022-12-04T14:11:55.007Z,101013.00
2022-12-04T14:15:04.346Z,101004.34
2022-12-04T14:18:13.438Z,101010.94
2022-12-04T14:21:16.029Z,101017.53
2022-12-04T14:24:38.754Z,101019.66
2022-12-04T14:27:41.295Z,101015.72
2022-12-04T14:30:45.323Z,101022.59
2022-12-04T14:33:52.744Z,101016.84
2022-12-04T14:36:57.831Z,101025.50
2022-12-04T14:40:01.824Z,101022.09
2022-12-04T14:43:05.469Z,101022.03
2022-12-04T14:46:23.248Z,101025.81
2022-12-04T14:49:29.774Z,101022.53
2022-12-04T14:53:06.374Z,101022.88
2022-12-04T14:56:30.342Z,101023.69
2022-12-04T14:59:49.154Z,101033.78
2022-12-04T15:02:56.423Z,101041.38
2022-12-04T15:06:16.069Z,101044.47
2022-12-04T15:09:42.814Z,101025.47
2022-12-04T15:12:50.448Z,101050.87
2022-12-04T15:15:53.945Z,101040.97
2022-12-04T15:18:59.305Z,101047.91
2022-12-04T15:22:11.516Z,101053.63
2022-12-04T15:25:25.092Z,101061.19
2022-12-04T15:28:30.426Z,101033.09
2022-12-04T15:31:47.108Z,101054.22
2022-12-04T15:35:00.594Z,101061.78
2022-12-04T15:38:03.583Z,101060.16
2022-12-04T15:41:08.268Z,101063.72
2022-12-04T15:44:31.066Z,101063.56
2022-12-04T15:47:53.965Z,101070.13
2022-12-04T15:51:06.431Z,101074.63
2022-12-04T15:54:18.627Z,101075.94
2022-12-04T15:57:29.243Z,101085.84
2022-12-04T16:00:42.928Z,101073.69
2022-12-04T16:03:50.187Z,101074.16
2022-12-04T16:06:53.894Z,101079.94
2022-12-04T16:10:04.027Z,101072.59
2022-12-04T16:13:07.124Z,101072.06
2022-12-04T16:16:22.335Z,101075.47
2022-12-04T16:19:38.443Z,101080.22
2022-12-04T16:22:42.686Z,101086.00
2022-12-04T16:25:46.680Z,101082.19
2022-12-04T16:28:52.040Z,101089.03
2022-12-04T16:32:01.147Z,101082.81
2022-12-04T16:35:06.721Z,101077.22
2022-12-04T16:38:16.482Z,101078.66
2022-12-04T16:41:21.419Z,101074.94
2022-12-04T16:44:24.251Z,101077.37
2022-12-04T16:47:27.561Z,101078.97
2022-12-04T16:50:30.457Z,101081.37
2022-12-04T16:53:34.104Z,101076.06
2022-12-04T16:56:37.194Z,101084.37
2022-12-04T16:59:40.632Z,101078.44
2022-12-04T17:02:44.861Z,101082.59
2022-12-04T17:05:48.017Z,101075.41
2022-12-04T17:08:50.926Z,101079.59
2022-12-04T17:11:53.789Z,101079.25
2022-12-04T17:14:57.809Z,101082.28
2022-12-04T17:18:04.698Z,101080.56
2022-12-04T17:21:12.447Z,101077.34
2022-12-04T17:24:15.527Z,101074.78
2022-12-04T17:27:18.370Z,101077.34
2022-12-04T17:30:21.666Z,101085.81
2022-12-04T17:33:25.950Z,101087.87
2022-12-04T17:36:29.570Z,101086.12
2022-12-04T17:39:32.582Z,101086.94
2022-12-04T17:42:35.507Z,101091.56
2022-12-04T17:45:41.414Z,101089.19
2022-12-04T17:48:44.672Z,101085.19
2022-12-04T17:51:47.864Z,101093.81
2022-12-04T17:54:52.089Z,101098.50
2022-12-04T17:57:55.399Z,101099.94
2022-12-04T18:01:10.019Z,101085.00
2022-12-04T18:04:13.175Z,101084.37
2022-12-04T18:07:15.794Z,101093.66
2022-12-04T18:10:19.325Z,101089.66
2022-12-04T18:13:22.624Z,101102.25
2022-12-04T18:16:27.461Z,101093.97
2022-12-04T18:19:30.750Z,101091.37
2022-12-04T18:22:34.026Z,101102.75
2022-12-04T18:25:36.647Z,101093.47
2022-12-04T18:28:40.011Z,101098.09
2022-12-04T18:31:42.952Z,101093.47
2022-12-04T18:34:46.377Z,101093.34
2022-12-04T18:37:49.000Z,101098.44
2022-12-04T18:40:52.431Z,101103.06
2022-12-04T18:43:55.771Z,101103.06
2022-12-04T18:46:58.680Z,101100.81
2022-12-04T18:50:01.615Z,101104.97
2022-12-04T18:53:04.903Z,101095.22
2022-12-04T18:56:07.750Z,101094.25
2022-12-04T18:59:22.350Z,101101.59
2022-12-04T19:02:25.389Z,101102.25
2022-12-04T19:05:28.247Z,101106.72
2022-12-04T19:08:34.946Z,101107.69
2022-12-04T19:11:41.785Z,101109.41
2022-12-04T19:14:45.115Z,101114.41
2022-12-04T19:17:48.818Z,101117.25
2022-12-04T19:20:51.513Z,101117.78
2022-12-04T19:23:59.046Z,101119.19
2022-12-04T19:27:09.996Z,101120.63
2022-12-04T19:30:13.630Z,101125.88
2022-12-04T19:33:16.564Z,101127.63
2022-12-04T19:36:20.108Z,101125.72
2022-12-04T19:39:23.076Z,101125.53
2022-12-04T19:42:26.543Z,101125.41
2022-12-04T19:45:29.260Z,101130.69
2022-12-04T19:48:32.614Z,101121.69
2022-12-04T19:51:38.574Z,101119.84
2022-12-04T19:54:42.106Z,101122.19
2022-12-04T19:57:45.362Z,101116.75
2022-12-04T20:00:49.783Z,101109.88
2022-12-04T20:03:54.319Z,101120.63
2022-12-04T20:06:57.259Z,101126.38
2022-12-04T20:10:00.608Z,101120.75
2022-12-04T20:13:05.373Z,101124.09
2022-12-04T20:16:10.812Z,101116.59
2022-12-04T20:19:16.247Z,101125.41
2022-12-04T20:22:19.710Z,101119.81
2022-12-04T20:25:22.620Z,101125.06
2022-12-04T20:28:25.879Z,101128.19
2022-12-04T20:31:34.270Z,101130.69
2022-12-04T20:34:43.262Z,101128.63
2022-12-04T20:37:46.700Z,101131.47
2022-12-04T20:40:49.950Z,101139.31
2022-12-04T20:43:52.935Z,101136.62
2022-12-04T20:46:58.419Z,101139.63
2022-12-04T20:50:01.334Z,101142.03
2022-12-04T20:53:04.882Z,101143.72
2022-12-04T20:56:08.237Z,101144.53
2022-12-04T20:59:14.051Z,101133.69
2022-12-04T21:02:16.969Z,101137.81
2022-12-04T21:05:19.984Z,101138.81
2022-12-04T21:08:42.847Z,101140.91
2022-12-04T21:11:49.232Z,101139.88
2022-12-04T21:15:10.743Z,101130.50
2022-12-04T21:18:13.639Z,101128.13
2022-12-04T21:21:16.595Z,101124.91
2022-12-04T21:24:22.188Z,101124.59
2022-12-04T21:27:24.868Z,101114.06
2022-12-04T21:30:27.766Z,101123.44
2022-12-04T21:33:32.670Z,101124.91
2022-12-04T21:36:36.029Z,101123.16
2022-12-04T21:39:39.191Z,101128.25
2022-12-04T21:42:43.950Z,101144.28
2022-12-04T21:46:09.430Z,101148.75
2022-12-04T21:49:13.785Z,101150.62
2022-12-04T21:52:17.688Z,101153.66
2022-12-04T21:55:20.551Z,101149.37
2022-12-04T21:58:25.766Z,101153.84
2022-12-04T22:01:28.889Z,101151.94
2022-12-04T22:04:31.870Z,101156.03
2022-12-04T22:07:34.470Z,101150.06
2022-12-04T22:10:45.600Z,101149.78
2022-12-04T22:13:48.287Z,101151.22
2022-12-04T22:16:52.362Z,101151.75
2022-12-04T22:19:55.326Z,101151.25
2022-12-04T22:22:58.808Z,101155.50
2022-12-04T22:26:28.383Z,101142.78
2022-12-04T22:29:49.638Z,101155.06
2022-12-04T22:32:53.747Z,101150.59
2022-12-04T22:36:02.143Z,101160.16
2022-12-04T22:39:11.873Z,101151.41
2022-12-04T22:42:15.137Z,101150.59
2022-12-04T22:45:18.112Z,101158.72
2022-12-04T22:48:21.487Z,101160.47
2022-12-04T22:51:24.164Z,101152.06
2022-12-04T22:54:27.206Z,101145.31
2022-12-04T22:57:29.802Z,101137.00
2022-12-04T23:00:32.730Z,101140.50
2022-12-04T23:03:35.570Z,101140.50
2022-12-04T23:06:38.936Z,101149.59
2022-12-04T23:09:42.370Z,101151.97
2022-12-04T23:12:45.282Z,101142.16
2022-12-04T23:15:49.883Z,101145.59
2022-12-04T23:18:53.221Z,101143.84
2022-12-04T23:21:57.451Z,101130.72
2022-12-04T23:25:00.399Z,101143.09
2022-12-04T23:28:03.017Z,101143.09
2022-12-04T23:31:06.291Z,101141.47
2022-12-04T23:34:08.916Z,101132.06
2022-12-04T23:37:11.771Z,101130.81
2022-12-04T23:40:14.478Z,101125.37
2022-12-04T23:43:17.727Z,101127.94
2022-12-04T23:46:25.817Z,101136.34
2022-12-04T23:49:28.965Z,101135.34
2022-12-04T23:52:31.739Z,101140.69
2022-12-04T23:55:34.928Z,101138.66
2022-12-04T23:58:38.294Z,101138.81
